English version
lugares datos climáticos artículos

datos de Mairena del Aljarafe, Sevilla, España
Año Mes Dia Mostrar

  Fecha       hora        Temp.ext.    Hum.ext.  Dir.Viento   Vel.Viento  Presion al NM   T.int. Prec.hoy 

   22-01-2018    23:10      13.5º(+1.8)     85%      045(NE)      3.2 km/h    1027.2 hpa     23.6º    0.0 mm
   22-01-2018    23:05      13.6º(+1.9)     84%      022 (N)      3.2 km/h    1027.2 hpa     23.6º    0.0 mm
   22-01-2018    23:00      13.7º(+2.0)     83%      022 (N)      3.2 km/h    1027.1 hpa     23.6º    0.0 mm
   22-01-2018    22:55      13.8º(+2.0)     82%      022 (N)      3.2 km/h    1027.1 hpa     23.6º    0.0 mm
   22-01-2018    22:50      13.8º(+2.0)     82%      000 (N)      3.2 km/h    1027.1 hpa     23.6º    0.0 mm
   22-01-2018    22:45      13.9º(+2.0)     82%         -         0.0 km/h    1027.1 hpa     23.6º    0.0 mm
   22-01-2018    22:40      13.8º(+1.8)     82%         -         0.0 km/h    1027.1 hpa     23.6º    0.0 mm
   22-01-2018    22:35      13.8º(+1.7)     82%         -         0.0 km/h    1027.1 hpa     23.6º    0.0 mm
   22-01-2018    22:30      13.8º(+1.7)     82%         -         0.0 km/h    1027.1 hpa     23.6º    0.0 mm
   22-01-2018    22:25      13.7º(+1.5)     82%         -         0.0 km/h    1027.1 hpa     23.5º    0.0 mm
   22-01-2018    22:20      13.7º(+1.5)     81%         -         0.0 km/h    1027.1 hpa     23.5º    0.0 mm
   22-01-2018    22:15      13.7º(+1.5)     81%         -         0.0 km/h    1027.1 hpa     23.5º    0.0 mm
   22-01-2018    22:10      13.7º(+1.5)     81%         -         0.0 km/h    1027.1 hpa     23.6º    0.0 mm
   22-01-2018    22:05      13.7º(+1.4)     81%         -         0.0 km/h    1027.1 hpa     23.6º    0.0 mm
   22-01-2018    22:00      13.8º(+1.5)     81%      000 (N)      1.6 km/h    1027.2 hpa     23.6º    0.0 mm
   22-01-2018    21:55      13.9º(+1.5)     80%         -         0.0 km/h    1027.2 hpa     23.6º    0.0 mm
   22-01-2018    21:50      13.9º(+1.3)     80%      000 (N)      3.2 km/h    1027.2 hpa     23.6º    0.0 mm
   22-01-2018    21:45      14.0º(+1.3)     80%         -         0.0 km/h    1027.1 hpa     23.6º    0.0 mm
   22-01-2018    21:40      14.1º(+1.3)     80%         -         0.0 km/h    1027.2 hpa     23.6º    0.0 mm
   22-01-2018    21:35      14.2º(+1.3)     79%         -         0.0 km/h    1027.1 hpa     23.6º    0.0 mm
   22-01-2018    21:30      14.3º(+1.4)     79%         -         0.0 km/h    1027.2 hpa     23.6º    0.0 mm
   22-01-2018    21:25      14.3º(+1.4)     79%         -         0.0 km/h    1027.2 hpa     23.6º    0.0 mm
   22-01-2018    21:20      14.4º(+1.5)     79%         -         0.0 km/h    1027.2 hpa     23.5º    0.0 mm
   22-01-2018    21:15      14.4º(+1.4)     79%         -         0.0 km/h    1027.1 hpa     23.5º    0.0 mm
   22-01-2018    21:10      14.5º(+1.5)     79%         -         0.0 km/h    1027.1 hpa     23.5º    0.0 mm
   22-01-2018    21:05      14.6º(+1.5)     79%         -         0.0 km/h    1027.0 hpa     23.5º    0.0 mm
   22-01-2018    21:00      14.6º(+1.6)     79%         -         0.0 km/h    1027.0 hpa     23.5º    0.0 mm
   22-01-2018    20:55      14.6º(+1.6)     78%         -         0.0 km/h    1027.0 hpa     23.4º    0.0 mm
   22-01-2018    20:50      14.7º(+1.7)     78%         -         0.0 km/h    1027.0 hpa     23.4º    0.0 mm
   22-01-2018    20:45      14.8º(+1.7)     77%         -         0.0 km/h    1026.9 hpa     23.4º    0.0 mm
   22-01-2018    20:40      14.9º(+1.8)     77%         -         0.0 km/h    1026.9 hpa     23.4º    0.0 mm
   22-01-2018    20:35      15.1º(+2.0)     77%         -         0.0 km/h    1026.9 hpa     23.4º    0.0 mm
   22-01-2018    20:30      15.1º(+2.0)     77%         -         0.0 km/h    1026.8 hpa     23.4º    0.0 mm
   22-01-2018    20:25      15.2º(+2.1)     78%         -         0.0 km/h    1026.8 hpa     23.4º    0.0 mm
   22-01-2018    20:20      15.3º(+2.1)     78%         -         0.0 km/h    1026.9 hpa     23.4º    0.0 mm
   22-01-2018    20:15      15.5º(+2.3)     79%         -         0.0 km/h    1026.9 hpa     23.3º    0.0 mm
   22-01-2018    20:10      15.7º(+2.5)     79%         -         0.0 km/h    1026.9 hpa     23.3º    0.0 mm
   22-01-2018    20:05      15.8º(+2.6)     79%         -         0.0 km/h    1026.8 hpa     23.3º    0.0 mm
   22-01-2018    20:00      15.9º(+2.7)     79%         -         0.0 km/h    1026.8 hpa     23.2º    0.0 mm
   22-01-2018    19:55      16.0º(+2.8)     79%         -         0.0 km/h    1026.9 hpa     23.2º    0.0 mm
   22-01-2018    19:50      16.1º(+2.9)     78%         -         0.0 km/h    1026.9 hpa     23.2º    0.0 mm
   22-01-2018    19:45      16.2º(+3.0)     77%         -         0.0 km/h    1026.9 hpa     23.1º    0.0 mm
   22-01-2018    19:40      16.3º(+3.0)     77%         -         0.0 km/h    1026.8 hpa     23.1º    0.0 mm
   22-01-2018    19:35      16.4º(+3.0)     76%         -         0.0 km/h    1026.8 hpa     23.1º    0.0 mm
   22-01-2018    19:30      16.5º(+2.9)     76%         -         0.0 km/h    1026.8 hpa     23.1º    0.0 mm
   22-01-2018    19:25      16.6º(+2.9)     75%         -         0.0 km/h    1026.6 hpa     23.1º    0.0 mm
   22-01-2018    19:20      16.8º(+3.0)     75%         -         0.0 km/h    1026.6 hpa     23.1º    0.0 mm
   22-01-2018    19:15      16.9º(+3.0)     74%         -         0.0 km/h    1026.6 hpa     23.1º    0.0 mm
   22-01-2018    19:10      17.0º(+3.0)     73%         -         0.0 km/h    1026.6 hpa     23.1º    0.0 mm
   22-01-2018    19:05      17.2º(+3.0)     73%         -         0.0 km/h    1026.6 hpa     23.1º    0.0 mm
   22-01-2018    19:00      17.3º(+3.1)     72%         -         0.0 km/h    1026.5 hpa     23.1º    0.0 mm
   22-01-2018    18:55      17.3º(+3.0)     72%         -         0.0 km/h    1026.5 hpa     23.1º    0.0 mm
   22-01-2018    18:50      17.4º(+3.0)     71%         -         0.0 km/h    1026.5 hpa     23.1º    0.0 mm
   22-01-2018    18:45      17.6º(+2.9)     71%         -         0.0 km/h    1026.4 hpa     23.1º    0.0 mm
   22-01-2018    18:40      17.7º(+2.8)     70%         -         0.0 km/h    1026.4 hpa     23.1º    0.0 mm
   22-01-2018    18:35      18.1º(+2.9)     69%         -         0.0 km/h    1026.4 hpa     23.1º    0.0 mm
   22-01-2018    18:30      18.2º(+2.8)     68%         -         0.0 km/h    1026.2 hpa     23.1º    0.0 mm
   22-01-2018    18:25      18.4º(+2.7)     68%         -         0.0 km/h    1026.3 hpa     23.1º    0.0 mm
   22-01-2018    18:20      18.4º(+2.4)     68%         -         0.0 km/h    1026.3 hpa     23.1º    0.0 mm
   22-01-2018    18:15      18.4º(+2.1)     68%         -         0.0 km/h    1026.3 hpa     22.9º    0.0 mm
   22-01-2018    18:10      18.4º(+1.9)     66%         -         0.0 km/h    1026.3 hpa     22.9º    0.0 mm
   22-01-2018    18:05      18.7º(+2.1)     64%         -         0.0 km/h    1026.3 hpa     22.9º    0.0 mm
   22-01-2018    18:00      19.1º(+2.3)     62%         -         0.0 km/h    1026.3 hpa     22.9º    0.0 mm
   22-01-2018    17:55      19.4º(+2.6)     61%         -         0.0 km/h    1026.3 hpa     22.9º    0.0 mm
   22-01-2018    17:50      19.9º(+3.0)     59%         -         0.0 km/h    1026.3 hpa     22.9º    0.0 mm
   22-01-2018    17:45      20.2º(+3.4)     58%         -         0.0 km/h    1026.2 hpa     22.9º    0.0 mm
   22-01-2018    17:40      20.2º(+3.4)     57%         -         0.0 km/h    1026.3 hpa     22.9º    0.0 mm
   22-01-2018    17:35      20.2º(+3.4)     58%         -         0.0 km/h    1026.2 hpa     22.9º    0.0 mm
   22-01-2018    17:30      20.2º(+3.5)     58%         -         0.0 km/h    1026.2 hpa     22.8º    0.0 mm
   22-01-2018    17:25      20.2º(+3.4)     57%         -         0.0 km/h    1026.3 hpa     22.8º    0.0 mm
   22-01-2018    17:20      20.2º(+3.5)     57%         -         0.0 km/h    1026.3 hpa     22.8º    0.0 mm
   22-01-2018    17:15      20.3º(+3.7)     57%         -         0.0 km/h    1026.3 hpa     22.8º    0.0 mm
   22-01-2018    17:10      20.4º(+3.7)     56%         -         0.0 km/h    1026.2 hpa     22.8º    0.0 mm
   22-01-2018    17:05      20.7º(+3.9)     56%         -         0.0 km/h    1026.3 hpa     22.8º    0.0 mm
   22-01-2018    17:00      20.8º(+3.9)     55%         -         0.0 km/h    1026.2 hpa     22.8º    0.0 mm
   22-01-2018    16:55      20.8º(+3.7)     55%         -         0.0 km/h    1026.3 hpa     22.8º    0.0 mm
   22-01-2018    16:50      20.8º(+3.5)     55%         -         0.0 km/h    1026.2 hpa     22.8º    0.0 mm
   22-01-2018    16:45      20.7º(+3.3)     55%         -         0.0 km/h    1026.2 hpa     22.8º    0.0 mm
   22-01-2018    16:40      20.6º(+3.1)     55%         -         0.0 km/h    1026.2 hpa     22.8º    0.0 mm
   22-01-2018    16:35      20.5º(+3.0)     55%         -         0.0 km/h    1026.3 hpa     22.8º    0.0 mm
   22-01-2018    16:30      20.4º(+3.0)     55%         -         0.0 km/h    1026.3 hpa     22.8º    0.0 mm
   22-01-2018    16:25      20.3º(+2.9)     56%         -         0.0 km/h    1026.3 hpa     22.8º    0.0 mm
   22-01-2018    16:20      20.1º(+2.7)     57%         -         0.0 km/h    1026.3 hpa     22.8º    0.0 mm
   22-01-2018    16:15      19.9º(+2.3)     57%         -         0.0 km/h    1026.3 hpa     22.8º    0.0 mm
   22-01-2018    16:10      19.7º(+2.1)     59%         -         0.0 km/h    1026.5 hpa     22.7º    0.0 mm
   22-01-2018    16:05      19.3º(+1.7)     60%         -         0.0 km/h    1026.5 hpa     22.7º    0.0 mm
   22-01-2018    16:00      19.1º(+1.5)     60%         -         0.0 km/h    1026.5 hpa     22.7º    0.0 mm
   22-01-2018    15:55      18.9º(+1.2)     61%         -         0.0 km/h    1026.5 hpa     22.7º    0.0 mm
   22-01-2018    15:50      18.6º(+0.9)     62%         -         0.0 km/h    1026.4 hpa     22.7º    0.0 mm
   22-01-2018    15:45      18.5º(+0.6)     62%         -         0.0 km/h    1026.5 hpa     22.7º    0.0 mm
   22-01-2018    15:40      18.8º(+0.9)     61%         -         0.0 km/h    1026.5 hpa     22.7º    0.0 mm
   22-01-2018    15:35      18.7º(+1.0)     62%         -         0.0 km/h    1026.6 hpa     22.6º    0.0 mm
   22-01-2018    15:30      18.6º(+1.0)     62%      022 (N)      1.6 km/h    1026.8 hpa     22.6º    0.0 mm
   22-01-2018    15:25      18.7º(+1.0)     62%         -         0.0 km/h    1026.8 hpa     22.6º    0.0 mm
   22-01-2018    15:20      18.5º(+0.4)     63%         -         0.0 km/h    1026.8 hpa     22.4º    0.0 mm
   22-01-2018    15:15      18.3º(+0.4)     64%      022 (N)      1.6 km/h    1026.7 hpa     22.4º    0.0 mm
   22-01-2018    15:10      18.2º(+0.4)     64%      022 (N)      1.6 km/h    1026.8 hpa     22.4º    0.0 mm
   22-01-2018    15:05      17.9º(+0.2)     66%         -         0.0 km/h    1026.8 hpa     22.4º    0.0 mm
   22-01-2018    15:00      17.6º(+0.0)     67%         -         0.0 km/h    1026.8 hpa     22.4º    0.0 mm
   22-01-2018    14:55      17.4º(+0.0)     68%      022 (N)      1.6 km/h    1027.0 hpa     22.4º    0.0 mm
   22-01-2018    14:50      17.2º(-0.1)     68%      022 (N)      1.6 km/h    1026.9 hpa     22.3º    0.0 mm
   22-01-2018    14:45      17.2º(-0.2)     68%      045(NE)      1.6 km/h    1027.1 hpa     22.3º    0.0 mm
   22-01-2018    14:40      17.0º(-0.4)     69%      045(NE)      3.2 km/h    1027.2 hpa     22.3º    0.0 mm
   22-01-2018    14:35      16.7º(-0.8)     71%         -         0.0 km/h    1027.2 hpa     22.3º    0.0 mm
   22-01-2018    14:30      16.4º(-1.1)     71%      045(NE)      3.2 km/h    1027.3 hpa     22.2º    0.0 mm
   22-01-2018    14:25      16.3º(-1.0)     69%      067(NE)      4.8 km/h    1027.4 hpa     22.2º    0.0 mm
   22-01-2018    14:20      16.5º(-0.4)     72%         -         0.0 km/h    1027.4 hpa     22.2º    0.0 mm
   22-01-2018    14:15      16.2º(-0.5)     72%      067(NE)      3.2 km/h    1027.5 hpa     22.1º    0.0 mm
   22-01-2018    14:10      16.0º(-0.6)     72%      067(NE)      1.6 km/h    1027.6 hpa     22.1º    0.0 mm
   22-01-2018    14:05      15.8º(-0.4)     72%      067(NE)      3.2 km/h    1027.7 hpa     22.1º    0.0 mm
   22-01-2018    14:00      15.7º(-0.1)     72%      045(NE)      3.2 km/h    1027.7 hpa     22.0º    0.0 mm
   22-01-2018    13:55      15.6º(+0.2)     73%      045(NE)      3.2 km/h    1028.0 hpa     22.0º    0.0 mm
   22-01-2018    13:50      15.4º(+0.1)     74%      090 (E)      3.2 km/h    1028.0 hpa     22.0º    0.0 mm
   22-01-2018    13:45      15.3º(+0.2)     73%      090 (E)      6.4 km/h    1028.0 hpa     22.0º    0.0 mm
   22-01-2018    13:40      15.3º(+0.4)     75%      067(NE)      1.6 km/h    1028.0 hpa     21.9º    0.0 mm
   22-01-2018    13:35      15.0º(+0.4)     77%      067(NE)      3.2 km/h    1028.1 hpa     21.9º    0.0 mm
   22-01-2018    13:30      14.9º(+0.6)     76%      067(NE)      3.2 km/h    1028.2 hpa     21.9º    0.0 mm
   22-01-2018    13:25      14.9º(+0.9)     76%      045(NE)      1.6 km/h    1028.2 hpa     21.9º    0.0 mm
   22-01-2018    13:20      14.8º(+1.1)     76%      045(NE)      1.6 km/h    1028.4 hpa     21.9º    0.0 mm
   22-01-2018    13:15      14.7º(+1.3)     77%      045(NE)      1.6 km/h    1028.6 hpa     21.9º    0.0 mm
   22-01-2018    13:10      14.6º(+1.3)     76%      045(NE)      3.2 km/h    1028.6 hpa     21.9º    0.0 mm
   22-01-2018    13:05      14.6º(+1.1)     76%      045(NE)      3.2 km/h    1028.7 hpa     22.0º    0.0 mm
   22-01-2018    13:00      14.6º(+1.2)     77%      045(NE)      1.6 km/h    1028.8 hpa     22.0º    0.0 mm
   22-01-2018    12:55      14.3º(+0.9)     78%      045(NE)      1.6 km/h    1028.8 hpa     22.0º    0.0 mm
   22-01-2018    12:50      14.2º(+1.0)     77%      045(NE)      4.8 km/h    1028.9 hpa     22.0º    0.0 mm
   22-01-2018    12:45      14.2º(+1.3)     78%      045(NE)      3.2 km/h    1029.0 hpa     22.0º    0.0 mm
   22-01-2018    12:40      13.9º(+1.0)     79%      045(NE)      1.6 km/h    1029.0 hpa     22.1º    0.0 mm
   22-01-2018    12:35      13.7º(+1.2)     78%      045(NE)      3.2 km/h    1029.0 hpa     22.1º    0.0 mm
   22-01-2018    12:30      13.6º(+1.5)     78%      045(NE)      3.2 km/h    1029.0 hpa     22.1º    0.0 mm
   22-01-2018    12:25      13.6º(+1.8)     78%      045(NE)      3.2 km/h    1029.1 hpa     22.1º    0.0 mm
   22-01-2018    12:20      13.5º(+2.0)     79%      045(NE)      3.2 km/h    1029.2 hpa     22.1º    0.0 mm
   22-01-2018    12:15      13.3º(+1.9)     79%      045(NE)      3.2 km/h    1029.3 hpa     22.1º    0.0 mm
   22-01-2018    12:10      13.2º(+2.1)     80%      045(NE)      4.8 km/h    1029.3 hpa     22.1º    0.0 mm
   22-01-2018    12:05      13.1º(+2.2)     80%      045(NE)      4.8 km/h    1029.4 hpa     22.1º    0.0 mm
   22-01-2018    12:00      13.0º(+2.3)     81%      045(NE)      1.6 km/h    1029.4 hpa     22.1º    0.0 mm
   22-01-2018    11:55      12.8º(+2.1)     82%      045(NE)      1.6 km/h    1029.5 hpa     22.1º    0.0 mm
   22-01-2018    11:50      12.4º(+1.9)     83%      067(NE)      3.2 km/h    1029.6 hpa     22.1º    0.0 mm
   22-01-2018    11:45      12.2º(+1.8)     82%      090 (E)      6.4 km/h    1029.7 hpa     22.1º    0.0 mm
   22-01-2018    11:40      12.1º(+1.8)     83%      090 (E)      3.2 km/h    1029.8 hpa     22.1º    0.0 mm
   22-01-2018    11:35      11.9º(+1.6)     83%      090 (E)      6.4 km/h    1029.8 hpa     22.2º    0.0 mm
   22-01-2018    11:30      11.8º(+1.6)     83%      090 (E)      6.4 km/h    1029.9 hpa     22.2º    0.0 mm
   22-01-2018    11:25      11.8º(+1.5)     84%      090 (E)      3.2 km/h    1029.9 hpa     22.2º    0.0 mm
   22-01-2018    11:20      11.6º(+1.2)     83%      090 (E)      9.7 km/h    1029.9 hpa     22.2º    0.0 mm
   22-01-2018    11:15      11.7º(+1.1)     84%      090 (E)      6.4 km/h    1029.9 hpa     22.2º    0.0 mm
   22-01-2018    11:10      11.7º(+0.8)     84%      045(NE)      4.8 km/h    1029.9 hpa     22.2º    0.0 mm
   22-01-2018    11:05      11.6º(+0.7)     85%      090 (E)      1.6 km/h    1029.9 hpa     22.2º    0.0 mm
   22-01-2018    11:00      11.4º(+0.7)     85%      090 (E)      3.2 km/h    1029.9 hpa     22.2º    0.0 mm
   22-01-2018    10:55      11.3º(+1.0)     85%      045(NE)      4.8 km/h    1029.8 hpa     22.3º    0.0 mm
   22-01-2018    10:50      11.2º(+1.4)     86%      045(NE)      1.6 km/h    1029.8 hpa     22.3º    0.0 mm
   22-01-2018    10:45      11.0º(+1.6)     86%      067(NE)      4.8 km/h    1029.8 hpa     22.3º    0.0 mm
   22-01-2018    10:40      10.9º(+1.7)     87%      045(NE)      1.6 km/h    1029.7 hpa     22.3º    0.0 mm
   22-01-2018    10:35      10.7º(+1.6)     87%      067(NE)      1.6 km/h    1029.5 hpa     22.3º    0.0 mm
   22-01-2018    10:30      10.6º(+1.9)     88%      067(NE)      1.6 km/h    1029.6 hpa     22.3º    0.0 mm
   22-01-2018    10:25      10.3º(+1.9)     89%      045(NE)      1.6 km/h    1029.5 hpa     22.3º    0.0 mm
   22-01-2018    10:20      10.2º(+2.0)     89%      067(NE)      3.2 km/h    1029.4 hpa     22.3º    0.0 mm
   22-01-2018    10:15      10.1º(+2.2)     89%      090 (E)      3.2 km/h    1029.4 hpa     22.3º    0.0 mm
   22-01-2018    10:10      10.0º(+2.2)     90%      067(NE)      3.2 km/h    1029.4 hpa     22.3º    0.0 mm
   22-01-2018    10:05       9.9º(+2.2)     90%      090 (E)      3.2 km/h    1029.4 hpa     22.3º    0.0 mm
   22-01-2018    10:00       9.8º(+2.2)     91%      067(NE)      4.8 km/h    1029.5 hpa     22.3º    0.0 mm
   22-01-2018    09:55       9.6º(+2.1)     91%      090 (E)      3.2 km/h    1029.5 hpa     22.4º    0.0 mm
   22-01-2018    09:50       9.4º(+2.2)     91%      090 (E)      6.4 km/h    1029.5 hpa     22.4º    0.0 mm
   22-01-2018    09:45       9.3º(+2.1)     92%      067(NE)      3.2 km/h    1029.4 hpa     22.4º    0.0 mm
   22-01-2018    09:40       9.2º(+1.9)     92%      045(NE)      3.2 km/h    1029.3 hpa     22.4º    0.0 mm
   22-01-2018    09:35       9.0º(+1.8)     93%      045(NE)      1.6 km/h    1029.2 hpa     22.4º    0.0 mm
   22-01-2018    09:30       8.8º(+1.4)     93%      045(NE)      1.6 km/h    1029.2 hpa     22.4º    0.0 mm
   22-01-2018    09:25       8.6º(+0.3)     93%      045(NE)      3.2 km/h    1029.2 hpa     22.4º    0.0 mm
   22-01-2018    09:20       8.4º(-0.7)     92%      045(NE)      3.2 km/h    1029.2 hpa     22.4º    0.0 mm
   22-01-2018    09:15       8.3º(-1.1)     92%      045(NE)      1.6 km/h    1029.2 hpa     22.4º    0.0 mm
   22-01-2018    09:10       8.3º(-1.0)     92%      045(NE)      1.6 km/h    1029.2 hpa     22.4º    0.0 mm
   22-01-2018    09:05       8.3º(-0.8)     92%      045(NE)      1.6 km/h    1029.2 hpa     22.4º    0.0 mm
   22-01-2018    09:00        - º(----)      -%         -          -  km/h    1029.2 hpa     22.4º    0.0 mm
   22-01-2018    08:55        - º(----)      -%         -          -  km/h    1029.2 hpa     22.6º    0.0 mm
   22-01-2018    08:50        - º(----)      -%         -          -  km/h    1029.1 hpa     22.7º    0.0 mm
   22-01-2018    08:45        - º(----)      -%         -          -  km/h    1029.2 hpa     22.6º    0.0 mm
   22-01-2018    08:40        - º(----)      -%         -          -  km/h    1029.2 hpa     22.6º    0.0 mm
   22-01-2018    08:35        - º(----)      -%         -          -  km/h    1029.1 hpa     22.7º    0.0 mm
   22-01-2018    08:30        - º(----)      -%         -          -  km/h    1029.0 hpa     22.4º    0.0 mm
   22-01-2018    08:25        - º(----)      -%         -          -  km/h    1029.1 hpa     22.4º    0.0 mm
   22-01-2018    08:20        - º(----)      -%         -          -  km/h    1029.1 hpa     22.4º    0.0 mm
   22-01-2018    08:15        - º(----)      -%         -          -  km/h    1028.9 hpa     22.7º    0.0 mm
   22-01-2018    08:10        - º(----)      -%         -          -  km/h    1028.7 hpa     22.4º    0.0 mm
   22-01-2018    08:05        - º(----)      -%         -          -  km/h    1028.8 hpa     22.4º    0.0 mm
   22-01-2018    08:00        - º(----)      -%         -          -  km/h    1028.6 hpa     22.6º    0.0 mm
   22-01-2018    07:55        - º(----)      -%         -          -  km/h    1028.7 hpa     22.4º    0.0 mm
   22-01-2018    07:50        - º(----)      -%         -          -  km/h    1028.7 hpa     22.4º    0.0 mm
   22-01-2018    07:45        - º(----)      -%         -          -  km/h    1028.6 hpa     22.4º    0.0 mm
   22-01-2018    07:40        - º(----)      -%         -          -  km/h    1028.7 hpa     22.6º    0.0 mm
   22-01-2018    07:35        - º(----)      -%         -          -  km/h    1028.7 hpa     22.4º    0.0 mm
   22-01-2018    07:30        - º(----)      -%         -          -  km/h    1028.6 hpa     22.4º    0.0 mm
   22-01-2018    07:25        - º(----)      -%         -          -  km/h    1028.6 hpa     22.4º    0.0 mm
   22-01-2018    07:20        - º(----)      -%         -          -  km/h    1028.5 hpa     22.4º    0.0 mm
   22-01-2018    07:15        - º(----)      -%         -          -  km/h    1028.6 hpa     22.3º    0.0 mm
   22-01-2018    07:10        - º(----)      -%         -          -  km/h    1028.6 hpa     22.3º    0.0 mm
   22-01-2018    07:05        - º(----)      -%         -          -  km/h    1028.6 hpa     22.2º    0.0 mm
   22-01-2018    07:00        - º(----)      -%         -          -  km/h    1028.5 hpa     22.2º    0.0 mm
   22-01-2018    06:55        - º(----)      -%         -          -  km/h    1028.5 hpa     22.2º    0.0 mm
   22-01-2018    06:50        - º(----)      -%         -          -  km/h    1028.6 hpa     22.4º    0.0 mm
   22-01-2018    06:45        - º(----)      -%         -          -  km/h    1028.4 hpa     22.1º    0.0 mm
   22-01-2018    06:40        - º(----)      -%         -          -  km/h    1028.5 hpa     22.2º    0.0 mm
   22-01-2018    06:35        - º(----)      -%         -          -  km/h    1028.5 hpa     22.3º    0.0 mm
   22-01-2018    06:30       9.8º(+3.9)     89%         -          -  km/h    1028.4 hpa     22.4º    0.0 mm
   22-01-2018    06:25       9.8º(+3.9)     89%      045(NE)      3.2 km/h    1028.4 hpa     22.1º    0.0 mm
   22-01-2018    06:20       9.9º(+3.8)     89%      022 (N)      4.8 km/h    1028.4 hpa     21.9º    0.0 mm
   22-01-2018    06:15       9.9º(+3.8)     90%      045(NE)      4.8 km/h    1028.4 hpa     21.9º    0.0 mm
   22-01-2018    06:10       9.9º(+3.9)     90%      022 (N)      4.8 km/h    1028.5 hpa     21.9º    0.0 mm
   22-01-2018    06:05       9.8º(+3.7)     90%      022 (N)      3.2 km/h    1028.5 hpa     22.0º    0.0 mm
   22-01-2018    06:00       9.8º(+3.7)     89%      045(NE)      3.2 km/h    1028.5 hpa     22.0º    0.0 mm
   22-01-2018    05:55       9.9º(+3.7)     89%      045(NE)      1.6 km/h    1028.5 hpa     22.0º    0.0 mm
   22-01-2018    05:50       9.9º(+3.8)     89%      045(NE)      3.2 km/h    1028.5 hpa     22.0º    0.0 mm
   22-01-2018    05:45       9.9º(+4.0)     89%      067(NE)      3.2 km/h    1028.5 hpa     22.0º    0.0 mm
   22-01-2018    05:40       9.9º(+4.0)     89%      067(NE)      3.2 km/h    1028.5 hpa     22.0º    0.0 mm
   22-01-2018    05:35       9.9º(+4.0)     89%      045(NE)      3.2 km/h    1028.4 hpa     22.1º    0.0 mm
   22-01-2018    05:30       9.8º(+3.9)     89%      022 (N)      4.8 km/h    1028.4 hpa     22.1º    0.0 mm
   22-01-2018    05:25       9.8º(+3.9)     89%      045(NE)      4.8 km/h    1028.3 hpa     22.1º    0.0 mm
   22-01-2018    05:20       9.9º(+4.1)     89%      045(NE)      4.8 km/h    1028.3 hpa     22.1º    0.0 mm
   22-01-2018    05:15       9.8º(+4.0)     89%      045(NE)      4.8 km/h    1028.3 hpa     22.1º    0.0 mm
   22-01-2018    05:10       9.7º(+4.1)     89%      067(NE)      4.8 km/h    1028.3 hpa     22.1º    0.0 mm
   22-01-2018    05:05       9.7º(+4.2)     89%      045(NE)      4.8 km/h    1028.3 hpa     22.1º    0.0 mm
   22-01-2018    05:00       9.7º(+4.3)     89%      045(NE)      4.8 km/h    1028.3 hpa     22.0º    0.0 mm
   22-01-2018    04:55       9.7º(+4.4)     89%      045(NE)      4.8 km/h    1028.3 hpa     22.1º    0.0 mm
   22-01-2018    04:50       9.6º(+4.4)     89%      045(NE)      3.2 km/h    1028.4 hpa     22.1º    0.0 mm
   22-01-2018    04:45       9.5º(+4.3)     89%      022 (N)      1.6 km/h    1028.5 hpa     22.1º    0.0 mm
   22-01-2018    04:40       9.6º(+4.4)     89%      022 (N)      3.2 km/h    1028.5 hpa     22.1º    0.0 mm
   22-01-2018    04:35       9.6º(+4.3)     89%      022 (N)      3.2 km/h    1028.5 hpa     22.1º    0.0 mm
   22-01-2018    04:30       9.6º(+4.2)     89%      022 (N)      4.8 km/h    1028.6 hpa     22.1º    0.0 mm
   22-01-2018    04:25       9.6º(+3.9)     89%      022 (N)      4.8 km/h    1028.5 hpa     22.2º    0.0 mm
   22-01-2018    04:20       9.6º(+3.7)     88%      022 (N)      3.2 km/h    1028.6 hpa     22.2º    0.0 mm
   22-01-2018    04:15       9.6º(+3.5)     88%      022 (N)      4.8 km/h    1028.6 hpa     22.2º    0.0 mm
   22-01-2018    04:10       9.7º(+3.5)     88%      022 (N)      3.2 km/h    1028.6 hpa     22.2º    0.0 mm
   22-01-2018    04:05       9.8º(+3.4)     88%      000 (N)      1.6 km/h    1028.7 hpa     22.2º    0.0 mm
   22-01-2018    04:00       9.9º(+3.3)     88%         -         0.0 km/h    1028.8 hpa     22.2º    0.0 mm
   22-01-2018    03:55      10.0º(+3.1)     88%      000 (N)      3.2 km/h    1028.8 hpa     22.3º    0.0 mm
   22-01-2018    03:50      10.1º(+2.7)     88%      045(NE)      3.2 km/h    1028.7 hpa     22.3º    0.0 mm
   22-01-2018    03:45      10.1º(+2.6)     88%      045(NE)      3.2 km/h    1028.8 hpa     22.3º    0.0 mm
   22-01-2018    03:40      10.1º(+2.5)     88%      022 (N)      1.6 km/h    1028.8 hpa     22.3º    0.0 mm
   22-01-2018    03:35      10.2º(+2.4)     88%      022 (N)      1.6 km/h    1028.9 hpa     22.3º    0.0 mm
   22-01-2018    03:30      10.3º(+2.2)     88%         -         0.0 km/h    1028.8 hpa     22.3º    0.0 mm
   22-01-2018    03:25      10.4º(+2.1)     88%      022 (N)      1.6 km/h    1028.8 hpa     22.3º    0.0 mm
   22-01-2018    03:20      10.5º(+2.4)     88%      022 (N)      1.6 km/h    1028.9 hpa     22.3º    0.0 mm
   22-01-2018    03:15      10.7º(+2.6)     88%         -         0.0 km/h    1028.9 hpa     22.4º    0.0 mm
   22-01-2018    03:10      10.7º(+2.7)     88%         -         0.0 km/h    1028.9 hpa     22.4º    0.0 mm
   22-01-2018    03:05      10.7º(+2.6)     88%      022 (N)      1.6 km/h    1028.9 hpa     22.4º    0.0 mm
   22-01-2018    03:00      10.6º(+2.5)     88%         -         0.0 km/h    1028.9 hpa     22.4º    0.0 mm
   22-01-2018    02:55      10.6º(+2.7)     87%         -         0.0 km/h    1029.0 hpa     22.4º    0.0 mm
   22-01-2018    02:50      10.7º(+2.9)     87%         -         0.0 km/h    1029.0 hpa     22.4º    0.0 mm
   22-01-2018    02:45      11.0º(+3.3)     86%         -         0.0 km/h    1029.1 hpa     22.4º    0.0 mm
   22-01-2018    02:40      11.3º(+3.9)     86%         -         0.0 km/h    1028.9 hpa     22.4º    0.0 mm
   22-01-2018    02:35      11.4º(+4.2)     86%         -         0.0 km/h    1028.9 hpa     22.6º    0.0 mm
   22-01-2018    02:30      11.5º(+4.4)     86%         -         0.0 km/h    1029.0 hpa     22.6º    0.0 mm
   22-01-2018    02:25      11.6º(+4.4)     86%         -         0.0 km/h    1028.9 hpa     22.6º    0.0 mm
   22-01-2018    02:20      11.6º(+4.1)     87%         -         0.0 km/h    1028.9 hpa     22.6º    0.0 mm
   22-01-2018    02:15      11.5º(+3.5)     87%         -         0.0 km/h    1028.9 hpa     22.7º    0.0 mm
   22-01-2018    02:10      11.4º(+2.6)     87%         -         0.0 km/h    1029.0 hpa     22.7º    0.0 mm
   22-01-2018    02:05      11.4º(+1.9)     87%         -         0.0 km/h    1029.1 hpa     22.7º    0.0 mm
   22-01-2018    02:00      11.4º(+1.7)     87%      022 (N)      1.6 km/h    1029.2 hpa     22.7º    0.0 mm
   22-01-2018    01:55      11.4º(+1.4)     88%      022 (N)      4.8 km/h    1029.2 hpa     22.7º    0.0 mm
   22-01-2018    01:50      11.4º(+1.3)     89%      045(NE)      1.6 km/h    1029.4 hpa     22.8º    0.0 mm
   22-01-2018    01:45      11.3º(+1.5)     89%      045(NE)      1.6 km/h    1029.4 hpa     22.8º    0.0 mm
   22-01-2018    01:40      11.2º(+1.5)     89%      045(NE)      3.2 km/h    1029.4 hpa     22.8º    0.0 mm
   22-01-2018    01:35      11.1º(+1.6)     89%         -         0.0 km/h    1029.4 hpa     22.8º    0.0 mm
   22-01-2018    01:30      11.0º(+1.6)     89%         -         0.0 km/h    1029.5 hpa     22.8º    0.0 mm
   22-01-2018    01:25      11.0º(+1.7)     88%         -         0.0 km/h    1029.7 hpa     22.8º    0.0 mm
   22-01-2018    01:20      11.1º(+1.8)     88%         -         0.0 km/h    1029.8 hpa     22.8º    0.0 mm
   22-01-2018    01:15      11.1º(+1.8)     88%         -         0.0 km/h    1029.8 hpa     22.8º    0.0 mm
   22-01-2018    01:10      11.1º(+1.8)     88%         -         0.0 km/h    1029.8 hpa     22.8º    0.0 mm
   22-01-2018    01:05      11.1º(+1.8)     88%         -         0.0 km/h    1029.8 hpa     22.8º    0.0 mm
   22-01-2018    01:00      11.2º(+2.0)     88%         -         0.0 km/h    1029.8 hpa     22.9º    0.0 mm
   22-01-2018    00:55      11.2º(----)     88%         -         0.0 km/h    1029.9 hpa     22.9º    0.0 mm
   22-01-2018    00:50      11.3º(----)     88%         -         0.0 km/h    1030.1 hpa     22.9º    0.0 mm
   22-01-2018    00:45      11.3º(----)     88%         -         0.0 km/h    1030.2 hpa     23.1º    0.0 mm
   22-01-2018    00:40      11.3º(----)     88%         -         0.0 km/h    1030.2 hpa     23.1º    0.0 mm
   22-01-2018    00:35      11.3º(----)     88%         -         0.0 km/h    1030.2 hpa     23.1º    0.0 mm
   22-01-2018    00:30      11.3º(----)     88%         -         0.0 km/h    1030.2 hpa     23.1º    0.0 mm
   22-01-2018    00:25      11.3º(----)     88%         -         0.0 km/h    1030.2 hpa     23.1º    0.0 mm
   22-01-2018    00:20      11.3º(----)     88%         -         0.0 km/h    1030.1 hpa     23.1º    0.0 mm
   22-01-2018    00:15      11.3º(----)     88%         -         0.0 km/h    1030.1 hpa     23.2º    0.0 mm
   22-01-2018    00:10      11.3º(----)     87%         -         0.0 km/h    1030.2 hpa     23.2º    0.0 mm
   22-01-2018    00:05      11.3º(----)     87%         -         0.0 km/h    1030.1 hpa     23.2º    0.0 mm
   22-01-2018    00:00      11.4º(----)     87%         -         0.0 km/h    1030.1 hpa     23.3º    0.0 mm